Terminal Aerodrome Forecast
Issued by NWS Springfield, MO

Home | Current Version | Previous Version | Text Only | Print | Product List | Glossary On
Versions: 1 2 3 4 5 6 7 8 9 10 11 12 13 14 15 16 17 18 19 20 21 22 23 24 25 26 27 28 29 30
000
FTUS43 KSGF 282340
TAFSGF
TAF
KSGF 282340Z 2900/2924 10009KT P6SM SCT045
     FM290500 11012G21KT P6SM OVC030 WS020/12040KT
     FM290900 12014G22KT P6SM VCSH OVC015 WS020/12040KT
     FM291400 14014G27KT P6SM -SHRA VCTS BKN015 OVC035CB
     FM292200 14014G26KT P6SM -SHRA VCTS OVC035CB=

USA.gov is the U.S. government's official web portal to all federal, state and local government web resources and services.